createdAt,value
2023-02-07T00:00:41.427Z,21.85
2023-02-07T00:01:41.524Z,21.78
2023-02-07T00:02:41.401Z,21.76
2023-02-07T00:03:41.394Z,21.84
2023-02-07T00:04:41.394Z,21.81
2023-02-07T00:55:27.349Z,21.89
2023-02-07T00:56:28.208Z,21.91
2023-02-07T00:57:28.204Z,21.90
2023-02-07T00:58:28.187Z,21.89
2023-02-07T00:59:28.181Z,21.91
2023-02-07T01:00:28.203Z,21.87
2023-02-07T01:01:28.237Z,21.89
2023-02-07T01:02:28.158Z,21.93
2023-02-07T01:03:28.144Z,21.90
2023-02-07T01:04:28.174Z,21.89
2023-02-07T01:05:28.144Z,21.90
2023-02-07T01:06:28.186Z,21.90
2023-02-07T01:07:28.114Z,21.91
2023-02-07T01:08:28.108Z,21.89
2023-02-07T01:09:28.095Z,21.91
2023-02-07T01:10:28.103Z,21.89
2023-02-07T01:11:28.177Z,21.89
2023-02-07T01:12:28.069Z,21.89
2023-02-07T01:13:28.064Z,21.84
2023-02-07T01:14:28.058Z,21.83
2023-02-07T01:15:28.092Z,21.86
2023-02-07T01:16:28.080Z,21.84
2023-02-07T01:17:28.030Z,21.89
2023-02-07T01:18:28.020Z,21.87
2023-02-07T01:19:28.016Z,21.95
2023-02-07T01:20:28.001Z,21.91
2023-02-07T01:21:28.001Z,21.86
2023-02-07T01:22:27.988Z,21.77
2023-02-07T01:23:27.979Z,21.87
2023-02-07T01:24:27.970Z,21.87
2023-02-07T01:25:27.960Z,21.83
2023-02-07T01:26:27.955Z,21.86
2023-02-07T01:27:27.967Z,21.86
2023-02-07T01:28:27.935Z,21.81
2023-02-07T01:29:27.959Z,21.84
2023-02-07T01:30:27.922Z,21.87
2023-02-07T01:31:27.986Z,21.87
2023-02-07T01:32:27.905Z,21.84
2023-02-07T01:33:27.902Z,21.83
2023-02-07T01:34:27.899Z,21.87
2023-02-07T01:35:27.881Z,21.81
2023-02-07T01:36:27.873Z,21.81
2023-02-07T01:37:27.859Z,21.84
2023-02-07T01:38:27.852Z,21.77
2023-02-07T01:39:27.840Z,21.78
2023-02-07T01:40:27.832Z,21.77
2023-02-07T01:41:27.826Z,21.75
2023-02-07T01:42:27.825Z,21.80
2023-02-07T01:43:27.832Z,21.78
2023-02-07T01:44:27.795Z,21.75
2023-02-07T01:45:27.786Z,21.78
2023-02-07T01:46:27.808Z,21.74
2023-02-07T01:47:27.771Z,21.72
2023-02-07T01:48:27.759Z,21.73
2023-02-07T01:49:27.755Z,21.69
2023-02-07T01:50:27.744Z,21.67
2023-02-07T01:51:27.731Z,21.73
2023-02-07T01:52:27.731Z,21.78
2023-02-07T01:53:27.714Z,21.75
2023-02-07T01:54:27.710Z,21.72
2023-02-07T01:55:27.706Z,21.61
2023-02-07T01:56:31.869Z,21.69
2023-02-07T01:57:27.963Z,21.70
2023-02-07T01:58:27.803Z,21.70
2023-02-07T01:59:27.832Z,21.68
2023-02-07T02:00:27.796Z,21.72
2023-02-07T02:01:27.831Z,21.72
2023-02-07T02:02:27.864Z,21.69
2023-02-07T02:03:27.760Z,21.69
2023-02-07T02:04:27.751Z,21.60
2023-02-07T02:05:27.756Z,21.63
2023-02-07T02:06:27.740Z,21.66
2023-02-07T02:07:27.725Z,21.64
2023-02-07T02:08:27.721Z,21.63
2023-02-07T02:09:27.716Z,21.64
2023-02-07T02:10:27.706Z,21.64
2023-02-07T02:11:27.690Z,21.64
2023-02-07T02:12:27.682Z,21.58
2023-02-07T02:13:27.679Z,21.61
2023-02-07T02:14:27.670Z,21.61
2023-02-07T02:15:27.685Z,21.61
2023-02-07T02:16:27.655Z,21.63
2023-02-07T02:17:27.642Z,21.66
2023-02-07T02:18:27.628Z,21.61
2023-02-07T02:19:27.705Z,21.59
2023-02-07T02:20:27.639Z,21.60
2023-02-07T02:21:27.604Z,21.60
2023-02-07T02:22:27.603Z,21.60
2023-02-07T02:23:27.599Z,21.57
2023-02-07T02:24:27.590Z,21.58
2023-02-07T02:25:27.574Z,21.61
2023-02-07T02:26:27.568Z,21.60
2023-02-07T02:27:27.559Z,21.60
2023-02-07T02:28:27.545Z,21.61
2023-02-07T02:29:27.538Z,21.57
2023-02-07T02:30:27.602Z,21.55
2023-02-07T02:31:27.622Z,21.60
2023-02-07T02:32:27.515Z,21.52
2023-02-07T02:33:27.543Z,21.51
2023-02-07T02:34:27.505Z,21.52
2023-02-07T02:35:27.481Z,21.57
2023-02-07T02:36:27.476Z,21.55
2023-02-07T02:37:27.469Z,21.54
2023-02-07T02:38:27.467Z,21.53
2023-02-07T02:39:27.452Z,21.54
2023-02-07T02:40:27.445Z,21.55
2023-02-07T02:41:27.434Z,21.57
2023-02-07T02:42:27.457Z,21.52
2023-02-07T02:43:27.412Z,21.52
2023-02-07T02:44:27.415Z,21.46
2023-02-07T02:45:27.397Z,21.51
2023-02-07T02:46:27.424Z,21.46
2023-02-07T02:47:27.407Z,21.46
2023-02-07T02:48:27.377Z,21.46
2023-02-07T02:49:27.367Z,21.43
2023-02-07T02:50:27.358Z,21.48
2023-02-07T02:51:27.346Z,21.43
2023-02-07T02:52:40.506Z,21.45
2023-02-07T02:53:27.335Z,21.45
2023-02-07T02:54:27.333Z,21.48
2023-02-07T02:55:27.323Z,21.40
2023-02-07T02:56:27.304Z,21.48
2023-02-07T02:57:27.294Z,21.43
2023-02-07T02:58:27.288Z,21.42
2023-02-07T02:59:27.280Z,21.40
2023-02-07T03:00:27.281Z,21.39
2023-02-07T03:01:27.353Z,21.40
2023-02-07T03:02:27.251Z,21.42
2023-02-07T03:03:27.274Z,21.40
2023-02-07T03:04:27.238Z,21.43
2023-02-07T03:05:27.323Z,21.45
2023-02-07T03:06:27.221Z,21.42
2023-02-07T03:07:27.210Z,21.45
2023-02-07T03:08:27.203Z,21.40
2023-02-07T03:09:27.206Z,21.42
2023-02-07T03:10:27.225Z,21.33
2023-02-07T03:11:27.189Z,21.39
2023-02-07T03:12:27.175Z,21.39
2023-02-07T03:13:27.169Z,21.40
2023-02-07T03:14:27.166Z,21.35
2023-02-07T03:15:27.146Z,21.35
2023-02-07T03:16:27.207Z,21.34
2023-02-07T03:17:27.126Z,21.37
2023-02-07T03:18:27.121Z,21.34
2023-02-07T03:19:27.131Z,21.32
2023-02-07T03:20:27.101Z,21.34
2023-02-07T03:21:27.088Z,21.34
2023-02-07T03:22:27.087Z,21.34
2023-02-07T03:23:27.070Z,21.32
2023-02-07T03:24:27.064Z,21.30
2023-02-07T03:25:27.054Z,21.30
2023-02-07T03:26:27.045Z,21.37
2023-02-07T03:27:27.037Z,21.33
2023-02-07T03:28:27.033Z,21.30
2023-02-07T03:29:27.026Z,21.30
2023-02-07T03:30:27.064Z,21.32
2023-02-07T03:31:27.035Z,21.31
2023-02-07T03:32:26.991Z,21.30
2023-02-07T03:33:26.995Z,21.30
2023-02-07T03:34:26.980Z,21.26
2023-02-07T03:35:26.998Z,21.26
2023-02-07T03:36:26.959Z,21.27
2023-02-07T03:37:26.954Z,21.22
2023-02-07T03:38:26.936Z,21.28
2023-02-07T03:39:26.937Z,21.28
2023-02-07T03:40:26.935Z,21.22
2023-02-07T03:41:26.913Z,21.26
2023-02-07T03:42:26.915Z,21.31
2023-02-07T03:43:26.897Z,21.28
2023-02-07T03:44:26.899Z,21.25
2023-02-07T03:45:26.873Z,21.27
2023-02-07T03:46:26.905Z,21.30
2023-02-07T03:47:26.922Z,21.22
2023-02-07T03:48:26.868Z,21.28
2023-02-07T03:49:26.852Z,21.25
2023-02-07T03:50:26.840Z,21.16
2023-02-07T03:51:26.853Z,21.16
2023-02-07T03:52:26.825Z,21.21
2023-02-07T03:53:26.814Z,21.21
2023-02-07T03:54:26.803Z,21.21
2023-02-07T03:55:26.796Z,21.24
2023-02-07T03:56:26.788Z,21.16
2023-02-07T03:57:26.785Z,21.18
2023-02-07T03:58:26.772Z,21.14
2023-02-07T03:59:26.771Z,21.16
2023-02-07T04:00:26.751Z,21.19
2023-02-07T04:01:26.748Z,21.19
2023-02-07T04:02:26.821Z,21.13
2023-02-07T04:03:26.746Z,21.11
2023-02-07T04:04:26.722Z,21.16
2023-02-07T04:05:26.712Z,21.11
2023-02-07T04:06:26.703Z,21.11
2023-02-07T04:07:26.721Z,21.14
2023-02-07T04:08:27.360Z,21.14
2023-02-07T04:09:26.684Z,21.16
2023-02-07T04:10:26.675Z,21.08
2023-02-07T04:11:26.660Z,21.14
2023-02-07T04:12:26.655Z,21.16
2023-02-07T04:13:26.650Z,21.11
2023-02-07T04:14:26.639Z,21.07
2023-02-07T04:15:26.703Z,21.05
2023-02-07T04:16:26.673Z,21.07
2023-02-07T04:17:26.622Z,21.10
2023-02-07T04:18:26.600Z,21.05
2023-02-07T04:19:26.591Z,21.01
2023-02-07T04:20:26.584Z,21.08
2023-02-07T04:21:26.579Z,21.11
2023-02-07T04:22:26.564Z,21.07
2023-02-07T04:23:26.589Z,21.11
2023-02-07T04:24:26.552Z,21.05
2023-02-07T04:25:26.543Z,21.02
2023-02-07T04:26:26.536Z,21.01
2023-02-07T04:27:26.524Z,21.07
2023-02-07T04:28:26.515Z,20.99
2023-02-07T04:29:26.515Z,21.01
2023-02-07T04:30:26.519Z,20.99
2023-02-07T04:31:26.527Z,21.01
2023-02-07T04:32:26.484Z,21.01
2023-02-07T04:33:26.472Z,20.99
2023-02-07T04:34:26.474Z,20.99
2023-02-07T04:35:26.451Z,21.01
2023-02-07T04:36:26.442Z,21.02
2023-02-07T04:37:26.442Z,21.05
2023-02-07T04:38:26.445Z,21.05
2023-02-07T04:39:26.463Z,21.04
2023-02-07T04:40:26.408Z,20.99
2023-02-07T04:41:26.396Z,20.98
2023-02-07T04:42:26.392Z,20.96
2023-02-07T04:43:26.386Z,20.98
2023-02-07T04:44:26.373Z,21.03
2023-02-07T04:45:26.439Z,21.04
2023-02-07T04:46:26.357Z,21.04
2023-02-07T04:47:26.349Z,20.98
2023-02-07T04:48:26.341Z,20.98
2023-02-07T04:49:26.338Z,21.01
2023-02-07T04:50:26.326Z,21.04
2023-02-07T04:51:26.313Z,20.97
2023-02-07T04:52:26.305Z,20.99
2023-02-07T04:53:26.317Z,20.95
2023-02-07T04:54:26.289Z,20.90
2023-02-07T04:55:26.304Z,20.90
2023-02-07T04:56:26.269Z,20.92
2023-02-07T04:57:26.258Z,20.95
2023-02-07T04:58:26.260Z,20.92
2023-02-07T04:59:26.243Z,20.89
2023-02-07T05:00:26.290Z,20.93
2023-02-07T05:01:26.299Z,20.92
2023-02-07T05:02:26.222Z,21.01
2023-02-07T05:03:26.212Z,20.90
2023-02-07T05:04:26.285Z,20.92
2023-02-07T05:05:26.195Z,20.87
2023-02-07T05:06:26.188Z,20.90
2023-02-07T05:07:26.181Z,20.87
2023-02-07T05:08:26.428Z,20.84
2023-02-07T05:09:26.165Z,20.87
2023-02-07T05:10:26.208Z,20.90
2023-02-07T05:11:26.166Z,20.89
2023-02-07T05:12:26.136Z,20.93
2023-02-07T05:13:26.130Z,20.90
2023-02-07T05:14:26.119Z,20.93
2023-02-07T05:15:26.170Z,20.87
2023-02-07T05:16:26.165Z,20.84
2023-02-07T05:17:26.094Z,20.84
2023-02-07T05:18:26.085Z,20.87
2023-02-07T05:19:26.080Z,20.89
2023-02-07T05:20:26.074Z,20.84
2023-02-07T05:21:26.061Z,20.77
2023-02-07T05:22:26.051Z,20.75
2023-02-07T05:23:26.052Z,20.77
2023-02-07T05:24:26.049Z,20.83
2023-02-07T05:25:26.024Z,20.80
2023-02-07T05:26:26.018Z,20.83
2023-02-07T05:27:26.036Z,20.83
2023-02-07T05:28:26.006Z,20.80
2023-02-07T05:29:25.997Z,20.78
2023-02-07T05:30:25.991Z,20.71
2023-02-07T05:31:26.079Z,20.70
2023-02-07T05:32:26.705Z,20.72
2023-02-07T05:33:25.955Z,20.74
2023-02-07T05:34:25.952Z,20.72
2023-02-07T05:35:25.941Z,20.75
2023-02-07T05:36:25.934Z,20.68
2023-02-07T05:37:25.920Z,20.68
2023-02-07T05:38:25.918Z,20.68
2023-02-07T05:39:25.898Z,20.71
2023-02-07T05:40:26.046Z,20.69
2023-02-07T05:41:25.890Z,20.66
2023-02-07T05:42:25.876Z,20.66
2023-02-07T05:43:25.903Z,20.61
2023-02-07T05:44:25.858Z,20.63
2023-02-07T05:45:25.864Z,20.69
2023-02-07T05:46:25.884Z,20.68
2023-02-07T05:47:25.829Z,20.68
2023-02-07T05:48:25.820Z,20.69
2023-02-07T05:49:25.816Z,20.61
2023-02-07T05:50:25.807Z,20.55
2023-02-07T05:51:25.805Z,20.58
2023-02-07T05:52:25.788Z,20.60
2023-02-07T05:53:25.786Z,20.60
2023-02-07T05:54:25.770Z,20.58
2023-02-07T05:55:25.786Z,20.54
2023-02-07T05:56:25.759Z,20.54
2023-02-07T05:57:25.750Z,20.52
2023-02-07T05:58:25.736Z,20.55
2023-02-07T05:59:25.751Z,20.58
2023-02-07T06:00:25.744Z,20.57
2023-02-07T06:01:25.713Z,20.46
2023-02-07T06:02:25.756Z,20.49
2023-02-07T06:03:25.700Z,20.57
2023-02-07T06:04:25.682Z,20.55
2023-02-07T06:05:25.682Z,20.51
2023-02-07T06:06:25.903Z,20.43
2023-02-07T06:07:25.669Z,20.48
2023-02-07T06:08:25.652Z,20.46
2023-02-07T06:09:25.639Z,20.52
2023-02-07T06:10:25.626Z,20.49
2023-02-07T06:11:25.623Z,20.51
2023-02-07T06:12:25.613Z,20.44
2023-02-07T06:13:25.614Z,20.37
2023-02-07T06:14:25.597Z,20.42
2023-02-07T06:15:25.657Z,20.43
2023-02-07T06:16:25.580Z,20.55
2023-02-07T06:17:25.570Z,20.61
2023-02-07T06:18:25.573Z,20.64
2023-02-07T06:19:25.909Z,20.61
2023-02-07T06:20:25.547Z,20.64
2023-02-07T06:21:31.962Z,20.65
2023-02-07T06:22:26.007Z,20.63
2023-02-07T06:23:25.570Z,20.66
2023-02-07T06:24:25.920Z,20.70
2023-02-07T06:25:25.568Z,20.69
2023-02-07T06:26:25.914Z,20.67
2023-02-07T06:27:25.496Z,20.65
2023-02-07T06:28:25.474Z,20.55
2023-02-07T06:29:25.479Z,20.57
2023-02-07T06:30:25.912Z,20.49
2023-02-07T06:31:26.153Z,20.51
2023-02-07T06:32:25.450Z,20.52
2023-02-07T06:33:25.914Z,20.54
2023-02-07T06:34:25.438Z,20.55
2023-02-07T06:35:25.424Z,20.49
2023-02-07T06:36:25.417Z,20.54
2023-02-07T06:37:25.406Z,20.52
2023-02-07T06:38:25.400Z,20.57
2023-02-07T06:39:25.420Z,20.59
2023-02-07T06:40:25.400Z,20.57
2023-02-07T06:41:25.393Z,20.56
2023-02-07T06:42:25.414Z,20.59
2023-02-07T06:43:25.571Z,20.53
2023-02-07T06:44:25.892Z,20.56
2023-02-07T06:45:25.330Z,20.54
2023-02-07T06:46:25.394Z,20.59
2023-02-07T06:47:25.440Z,20.56
2023-02-07T06:48:26.295Z,20.81
2023-02-07T06:49:25.336Z,20.87
2023-02-07T06:50:25.300Z,21.22
2023-02-07T06:51:25.318Z,21.25
2023-02-07T06:52:25.426Z,21.56
2023-02-07T06:53:25.267Z,21.78
2023-02-07T06:54:25.265Z,21.58
2023-02-07T06:55:25.350Z,21.68
2023-02-07T06:56:25.422Z,21.72
2023-02-07T06:57:25.238Z,21.89
2023-02-07T06:58:25.580Z,22.04
2023-02-07T06:59:25.218Z,22.60
2023-02-07T07:00:25.207Z,22.52
2023-02-07T07:01:25.216Z,22.52
2023-02-07T07:02:25.241Z,22.54
2023-02-07T07:03:25.451Z,22.63
2023-02-07T07:04:25.168Z,22.71
2023-02-07T07:05:25.166Z,22.81
2023-02-07T07:06:25.156Z,22.94
2023-02-07T07:07:25.155Z,23.15
2023-02-07T07:08:25.457Z,23.10
2023-02-07T07:09:25.161Z,23.20
2023-02-07T07:10:25.283Z,23.30
2023-02-07T07:11:25.114Z,23.37
2023-02-07T07:12:25.468Z,23.44
2023-02-07T07:13:25.100Z,20.96
2023-02-07T07:14:25.090Z,19.78
2023-02-07T07:15:25.071Z,19.06
2023-02-07T07:16:25.990Z,19.16
2023-02-07T07:17:25.455Z,18.32
2023-02-07T07:18:25.082Z,18.18
2023-02-07T07:19:25.098Z,18.12
2023-02-07T07:20:25.070Z,17.72
2023-02-07T07:21:25.036Z,17.65
2023-02-07T07:22:25.664Z,17.89
2023-02-07T07:23:25.036Z,18.13
2023-02-07T07:24:25.039Z,17.81
2023-02-07T07:25:25.043Z,17.48
2023-02-07T07:26:25.019Z,17.29
2023-02-07T07:27:25.000Z,17.21
2023-02-07T07:28:24.966Z,17.54
2023-02-07T07:29:24.981Z,17.53
2023-02-07T07:30:24.958Z,17.30
2023-02-07T07:31:24.965Z,17.20
2023-02-07T07:32:33.695Z,17.26
2023-02-07T07:33:24.927Z,17.49
2023-02-07T07:34:24.940Z,17.27
2023-02-07T07:35:24.936Z,17.50
2023-02-07T07:36:24.894Z,17.58
2023-02-07T07:38:24.874Z,17.11
2023-02-07T07:39:24.941Z,17.30
2023-02-07T07:40:24.857Z,17.39
2023-02-07T07:41:24.858Z,17.45
2023-02-07T07:42:24.978Z,17.53
2023-02-07T07:43:24.836Z,18.18
2023-02-07T07:44:25.807Z,18.38
2023-02-07T07:45:24.943Z,18.43
2023-02-07T07:46:24.851Z,18.54
2023-02-07T07:47:24.791Z,18.73
2023-02-07T07:48:25.018Z,18.82
2023-02-07T07:49:24.773Z,18.81
2023-02-07T07:50:24.789Z,18.81
2023-02-07T07:51:24.990Z,18.75
2023-02-07T07:52:24.769Z,18.70
2023-02-07T07:53:24.946Z,18.69
2023-02-07T07:54:24.728Z,18.70
2023-02-07T07:55:25.439Z,18.70
2023-02-07T07:56:24.707Z,18.76
2023-02-07T07:57:24.706Z,18.71
2023-02-07T07:58:24.948Z,18.72
2023-02-07T07:59:24.688Z,18.66
2023-02-07T08:00:24.669Z,18.65
2023-02-07T08:01:24.696Z,18.58
2023-02-07T08:02:24.956Z,18.61
2023-02-07T08:03:24.952Z,18.63
2023-02-07T08:04:24.638Z,18.51
2023-02-07T08:05:24.636Z,18.52
2023-02-07T08:06:24.633Z,18.47
2023-02-07T08:07:24.633Z,18.50
2023-02-07T08:08:24.950Z,18.51
2023-02-07T08:09:24.623Z,18.50
2023-02-07T08:10:24.617Z,18.52
2023-02-07T08:11:24.602Z,18.56
2023-02-07T08:12:24.984Z,18.53
2023-02-07T08:13:27.522Z,18.52
2023-02-07T08:14:24.585Z,18.50
2023-02-07T08:15:24.540Z,18.50
2023-02-07T08:16:24.582Z,18.49
2023-02-07T08:17:25.946Z,18.51
2023-02-07T08:18:24.517Z,18.55
2023-02-07T08:19:24.519Z,18.55
2023-02-07T08:20:24.501Z,18.54
2023-02-07T08:21:24.489Z,18.55
2023-02-07T08:22:24.977Z,18.59
2023-02-07T08:23:24.506Z,18.54
2023-02-07T08:24:24.468Z,18.54
2023-02-07T08:25:24.470Z,18.54
2023-02-07T08:26:24.487Z,18.56
2023-02-07T08:27:24.470Z,18.56
2023-02-07T08:28:24.435Z,18.57
2023-02-07T08:29:24.422Z,18.58
2023-02-07T08:30:24.443Z,18.62
2023-02-07T08:31:24.505Z,18.62
2023-02-07T08:32:24.423Z,18.58
2023-02-07T08:33:24.462Z,18.53
2023-02-07T08:34:24.464Z,18.59
2023-02-07T08:35:24.378Z,18.56
2023-02-07T08:36:24.366Z,18.61
2023-02-07T08:37:24.355Z,18.59
2023-02-07T08:38:24.351Z,18.73
2023-02-07T08:39:24.505Z,18.71
2023-02-07T08:40:24.366Z,18.84
2023-02-07T08:41:24.337Z,18.94
2023-02-07T08:42:24.322Z,19.00
2023-02-07T08:43:24.507Z,19.13
2023-02-07T08:44:24.473Z,19.15
2023-02-07T08:45:24.388Z,19.19
2023-02-07T08:46:25.325Z,19.28
2023-02-07T08:47:24.289Z,19.31
2023-02-07T08:48:24.270Z,19.54
2023-02-07T08:49:24.464Z,19.74
2023-02-07T08:50:24.243Z,19.73
2023-02-07T08:51:24.464Z,19.90
2023-02-07T08:52:25.262Z,19.96
2023-02-07T08:53:24.470Z,20.13
2023-02-07T08:54:24.475Z,20.15
2023-02-07T08:55:24.223Z,20.19
2023-02-07T08:56:24.202Z,20.30
2023-02-07T08:57:24.183Z,20.45
2023-02-07T08:58:24.183Z,20.60
2023-02-07T08:59:24.486Z,20.63
2023-02-07T09:00:24.364Z,20.68
2023-02-07T09:01:25.247Z,20.69
2023-02-07T09:02:24.184Z,20.79
2023-02-07T09:03:24.146Z,20.92
2023-02-07T09:04:24.485Z,21.01
2023-02-07T09:05:24.111Z,21.17
2023-02-07T09:06:24.104Z,21.27
2023-02-07T09:07:24.102Z,21.32
2023-02-07T09:08:24.088Z,21.47
2023-02-07T09:09:24.477Z,21.52
2023-02-07T09:10:24.107Z,21.68
2023-02-07T09:11:24.129Z,21.74
2023-02-07T09:12:24.078Z,21.86
2023-02-07T09:13:24.431Z,21.89
2023-02-07T09:14:24.514Z,21.94
2023-02-07T09:15:24.037Z,22.09
2023-02-07T09:16:24.194Z,22.23
2023-02-07T09:17:24.040Z,22.26
2023-02-07T09:18:24.005Z,22.29
2023-02-07T09:19:23.996Z,22.40
2023-02-07T09:20:24.078Z,22.45
2023-02-07T09:21:24.000Z,22.55
2023-02-07T09:22:23.975Z,22.74
2023-02-07T09:23:23.982Z,22.76
2023-02-07T09:24:23.969Z,22.72
2023-02-07T09:25:23.982Z,22.85
2023-02-07T09:26:23.968Z,23.03
2023-02-07T09:27:23.943Z,23.02
2023-02-07T09:28:24.265Z,23.08
2023-02-07T09:29:23.993Z,23.20
2023-02-07T09:30:23.903Z,23.57
2023-02-07T09:31:23.969Z,23.59
2023-02-07T09:32:23.896Z,23.48
2023-02-07T09:33:23.920Z,23.50
2023-02-07T09:34:23.986Z,23.52
2023-02-07T09:35:23.858Z,23.65
2023-02-07T09:36:23.908Z,23.82
2023-02-07T09:37:23.844Z,23.86
2023-02-07T09:38:23.845Z,23.90
2023-02-07T09:39:23.993Z,24.00
2023-02-07T09:40:23.997Z,24.11
2023-02-07T09:41:23.811Z,24.27
2023-02-07T09:42:25.104Z,24.28
2023-02-07T09:43:24.000Z,24.34
2023-02-07T09:44:24.226Z,24.43
2023-02-07T09:45:24.084Z,24.51
2023-02-07T09:46:23.865Z,24.71
2023-02-07T09:47:23.804Z,24.78
2023-02-07T09:48:23.746Z,24.81
2023-02-07T09:49:24.022Z,24.79
2023-02-07T09:50:23.997Z,24.89
2023-02-07T09:51:23.726Z,24.93
2023-02-07T09:52:23.935Z,25.08
2023-02-07T09:53:23.713Z,25.13
2023-02-07T09:54:24.009Z,25.29
2023-02-07T09:55:23.686Z,25.34
2023-02-07T09:56:23.675Z,25.50
2023-02-07T09:57:23.685Z,25.53
2023-02-07T09:58:23.660Z,25.52
2023-02-07T09:59:24.063Z,25.64
2023-02-07T10:00:23.645Z,25.75
2023-02-07T10:01:23.668Z,25.81
2023-02-07T10:02:23.658Z,25.88
2023-02-07T10:03:23.998Z,25.99
2023-02-07T10:04:23.603Z,26.09
2023-02-07T10:05:23.999Z,26.12
2023-02-07T10:06:23.590Z,26.09
2023-02-07T10:07:23.578Z,26.32
2023-02-07T10:08:28.345Z,26.29
2023-02-07T10:09:23.559Z,26.41
2023-02-07T10:10:23.997Z,26.41
2023-02-07T10:11:23.556Z,26.56
2023-02-07T10:12:23.534Z,26.70
2023-02-07T10:13:23.531Z,26.65
2023-02-07T10:14:23.518Z,26.70
2023-02-07T10:15:24.047Z,26.69
2023-02-07T10:16:23.507Z,26.87
2023-02-07T10:17:31.100Z,26.93
2023-02-07T10:18:23.514Z,27.03
2023-02-07T10:19:23.483Z,27.06
2023-02-07T10:20:23.500Z,27.07
2023-02-07T10:21:23.455Z,27.09
2023-02-07T10:22:23.483Z,27.13
2023-02-07T10:23:23.473Z,27.14
2023-02-07T10:24:23.430Z,27.28
2023-02-07T10:25:23.527Z,27.23
2023-02-07T10:26:23.435Z,27.47
2023-02-07T10:27:23.406Z,27.14
2023-02-07T10:28:23.419Z,26.71
2023-02-07T10:29:23.392Z,27.34
2023-02-07T10:30:23.560Z,27.19
2023-02-07T10:31:23.511Z,27.17
2023-02-07T10:32:23.359Z,27.20
2023-02-07T10:33:23.347Z,27.26
2023-02-07T10:34:23.342Z,27.26
2023-02-07T10:35:23.535Z,27.30
2023-02-07T10:36:23.510Z,27.38
2023-02-07T10:37:23.320Z,27.26
2023-02-07T10:38:26.513Z,27.27
2023-02-07T10:39:24.288Z,27.30
2023-02-07T10:40:23.292Z,27.21
2023-02-07T10:41:23.515Z,27.23
2023-02-07T10:42:23.272Z,27.24
2023-02-07T10:43:23.641Z,27.14
2023-02-07T10:44:23.262Z,27.14
2023-02-07T10:45:23.255Z,27.11
2023-02-07T10:46:23.302Z,27.13
2023-02-07T10:47:23.535Z,27.18
2023-02-07T10:48:23.222Z,25.85
2023-02-07T10:49:26.019Z,21.13
2023-02-07T10:50:29.695Z,20.82
2023-02-07T10:51:23.521Z,22.83
2023-02-07T10:52:24.199Z,23.74
2023-02-07T10:53:23.179Z,23.92
2023-02-07T10:54:23.166Z,24.38
2023-02-07T10:55:23.165Z,24.97
2023-02-07T10:56:23.515Z,25.45
2023-02-07T10:57:23.142Z,25.90
2023-02-07T10:58:23.993Z,26.08
2023-02-07T10:59:23.126Z,26.13
2023-02-07T11:00:23.121Z,26.22
2023-02-07T11:01:23.600Z,26.25
2023-02-07T11:02:23.122Z,26.24
2023-02-07T11:03:26.758Z,26.34
2023-02-07T11:04:23.079Z,26.30
2023-02-07T11:05:23.079Z,26.26
2023-02-07T11:06:23.059Z,26.19
2023-02-07T11:07:23.061Z,26.16
2023-02-07T11:08:23.525Z,26.17
2023-02-07T11:09:23.047Z,26.18
2023-02-07T11:10:23.031Z,26.18
2023-02-07T11:11:23.023Z,26.21
2023-02-07T11:12:23.038Z,26.19
2023-02-07T11:13:23.014Z,26.14
2023-02-07T11:14:22.999Z,26.18
2023-02-07T11:15:22.994Z,26.12
2023-02-07T11:16:23.119Z,26.12
2023-02-07T11:17:23.983Z,26.16
2023-02-07T11:18:22.967Z,26.15
2023-02-07T11:19:22.987Z,26.18
2023-02-07T11:20:22.952Z,26.25
2023-02-07T11:21:23.030Z,26.28
2023-02-07T11:22:22.947Z,26.32
2023-02-07T11:23:22.933Z,26.39
2023-02-07T11:24:22.915Z,26.21
2023-02-07T11:25:22.920Z,26.97
2023-02-07T11:26:23.159Z,26.83
2023-02-07T11:27:22.893Z,26.89
2023-02-07T11:28:22.939Z,27.00
2023-02-07T11:29:22.872Z,27.24
2023-02-07T11:30:22.863Z,27.54
2023-02-07T11:31:23.098Z,27.45
2023-02-07T11:32:24.539Z,21.84
2023-02-07T11:33:23.103Z,19.05
2023-02-07T11:34:23.083Z,19.36
2023-02-07T11:35:23.215Z,21.24
2023-02-07T11:36:24.109Z,22.48
2023-02-07T11:37:23.052Z,23.32
2023-02-07T11:38:23.206Z,23.73
2023-02-07T11:39:23.057Z,24.05
2023-02-07T11:40:23.142Z,24.47
2023-02-07T11:41:23.019Z,25.11
2023-02-07T11:42:23.035Z,25.48
2023-02-07T11:43:23.007Z,25.74
2023-02-07T11:44:23.000Z,25.84
2023-02-07T11:45:23.002Z,25.87
2023-02-07T11:46:23.000Z,25.98
2023-02-07T11:47:23.055Z,26.00
2023-02-07T11:48:23.039Z,26.11
2023-02-07T11:49:22.959Z,26.15
2023-02-07T11:50:22.948Z,26.29
2023-02-07T11:51:22.961Z,26.34
2023-02-07T11:52:23.112Z,26.42
2023-02-07T11:53:22.919Z,26.51
2023-02-07T11:54:23.637Z,26.57
2023-02-07T11:55:22.961Z,26.57
2023-02-07T11:56:22.921Z,26.51
2023-02-07T11:57:23.041Z,26.54
2023-02-07T11:58:22.878Z,26.61
2023-02-07T11:59:22.874Z,26.70
2023-02-07T12:00:22.889Z,26.69
2023-02-07T12:01:22.845Z,26.75
2023-02-07T12:02:23.050Z,26.75
2023-02-07T12:03:22.847Z,26.82
2023-02-07T12:04:22.824Z,26.90
2023-02-07T12:05:22.895Z,26.88
2023-02-07T12:06:22.816Z,26.97
2023-02-07T12:07:23.075Z,27.13
2023-02-07T12:08:23.056Z,27.18
2023-02-07T12:09:22.790Z,27.14
2023-02-07T12:10:22.771Z,27.28
2023-02-07T12:11:22.779Z,27.33
2023-02-07T12:12:23.064Z,27.31
2023-02-07T12:13:23.065Z,27.71
2023-02-07T12:14:22.742Z,27.81
2023-02-07T12:15:22.732Z,27.72
2023-02-07T12:16:23.191Z,27.82
2023-02-07T12:17:22.757Z,27.80
2023-02-07T12:18:23.056Z,16.99
2023-02-07T12:19:22.724Z,15.75
2023-02-07T12:20:22.688Z,16.55
2023-02-07T12:21:22.679Z,17.39
2023-02-07T12:22:22.674Z,18.87
2023-02-07T12:23:41.266Z,19.85
2023-02-07T12:24:22.656Z,20.13
2023-02-07T12:25:22.641Z,19.48
2023-02-07T12:26:22.636Z,19.54
2023-02-07T12:27:22.636Z,19.61
2023-02-07T12:28:23.128Z,19.79
2023-02-07T12:29:22.606Z,20.20
2023-02-07T12:30:22.598Z,20.48
2023-02-07T12:31:22.742Z,21.51
2023-02-07T12:32:22.631Z,22.00
2023-02-07T12:33:23.066Z,22.23
2023-02-07T12:34:23.074Z,22.39
2023-02-07T12:35:22.561Z,22.62
2023-02-07T12:36:22.542Z,22.64
2023-02-07T12:37:22.537Z,22.56
2023-02-07T12:38:22.532Z,22.61
2023-02-07T12:39:22.587Z,22.75
2023-02-07T12:40:22.511Z,22.84
2023-02-07T12:41:22.548Z,22.94
2023-02-07T12:42:22.529Z,23.14
2023-02-07T12:43:22.527Z,23.29
2023-02-07T12:44:22.567Z,23.37
2023-02-07T12:45:22.487Z,23.49
2023-02-07T12:46:22.470Z,23.44
2023-02-07T12:47:22.613Z,23.54
2023-02-07T12:48:22.586Z,23.77
2023-02-07T12:49:22.577Z,23.79
2023-02-07T12:50:22.732Z,23.82
2023-02-07T12:51:22.413Z,23.77
2023-02-07T12:52:22.409Z,23.74
2023-02-07T12:53:22.615Z,23.98
2023-02-07T12:54:22.412Z,24.11
2023-02-07T12:55:22.436Z,24.28
2023-02-07T12:56:22.411Z,24.26
2023-02-07T12:57:22.368Z,24.41
2023-02-07T12:58:22.572Z,24.64
2023-02-07T12:59:22.573Z,24.02
2023-02-07T13:00:22.338Z,23.95
2023-02-07T13:01:22.401Z,24.31
2023-02-07T13:02:22.410Z,24.42
2023-02-07T13:03:22.569Z,24.36
2023-02-07T13:04:22.574Z,24.42
2023-02-07T13:05:22.309Z,24.38
2023-02-07T13:06:22.283Z,24.34
2023-02-07T13:07:22.276Z,24.30
2023-02-07T13:08:22.269Z,24.26
2023-02-07T13:09:22.581Z,24.30
2023-02-07T13:10:22.295Z,24.26
2023-02-07T13:11:22.265Z,24.20
2023-02-07T13:12:22.254Z,24.24
2023-02-07T13:13:22.609Z,24.26
2023-02-07T13:14:22.242Z,24.19
2023-02-07T13:15:22.240Z,24.19
2023-02-07T13:16:22.250Z,24.13
2023-02-07T13:17:22.222Z,24.12
2023-02-07T13:18:22.593Z,24.13
2023-02-07T13:19:22.183Z,24.10
2023-02-07T13:20:22.164Z,24.06
2023-02-07T13:21:22.152Z,24.10
2023-02-07T13:22:22.189Z,24.17
2023-02-07T13:23:22.743Z,24.14
2023-02-07T13:24:22.161Z,24.13
2023-02-07T13:25:22.121Z,24.10
2023-02-07T13:26:22.117Z,24.14
2023-02-07T13:27:22.115Z,24.17
2023-02-07T13:28:22.646Z,24.09
2023-02-07T13:29:22.133Z,24.01
2023-02-07T13:30:22.404Z,24.12
2023-02-07T13:31:22.229Z,24.06
2023-02-07T13:32:22.053Z,24.06
2023-02-07T13:33:22.042Z,24.09
2023-02-07T13:34:23.034Z,24.03
2023-02-07T13:35:22.019Z,24.03
2023-02-07T13:36:22.014Z,24.03
2023-02-07T13:37:22.022Z,23.97
2023-02-07T13:38:22.591Z,23.99
2023-02-07T13:39:22.009Z,23.91
2023-02-07T13:40:22.013Z,23.89
2023-02-07T13:41:21.982Z,23.93
2023-02-07T13:42:21.970Z,23.97
2023-02-07T13:43:22.105Z,23.95